Time;durP1;ratioP1;P1;durP2;ratioP2;P2;SDS_P1;SDS_P2;PMS_P1;PMS_P2;Temp;Humidity;BMP_temperature;BMP_pressure;BME280_temperature;BME280_humidity;BME280_pressure;Samples;Min_cycle;Max_cycle;Signal;HPM_P1;HPM_P2
2023/08/23 00:00:34;;;;;;;2.72;1.67;;;;;;;;;;2091369;28;20033;-70
2023/08/23 00:01:53;;;;;;;4.50;1.75;;;;;;;;;;2091689;28;20514;-69
2023/08/23 00:03:13;;;;;;;2.33;1.98;;;;;;;;;;2091090;28;20150;-66
2023/08/23 00:04:34;;;;;;;3.17;1.70;;;;;;;;;;2094391;28;20032;-69
2023/08/23 00:05:53;;;;;;;5.80;2.13;;;;;;;;;;2092569;28;20782;-70
2023/08/23 00:07:12;;;;;;;4.32;1.80;;;;;;;;;;2092826;28;20029;-69
2023/08/23 00:08:31;;;;;;;2.80;1.90;;;;;;;;;;2093131;28;20037;-69
2023/08/23 00:09:50;;;;;;;3.88;2.50;;;;;;;;;;2087082;28;20072;-68
2023/08/23 00:11:09;;;;;;;3.38;1.70;;;;;;;;;;2091507;28;20029;-69
2023/08/23 00:12:28;;;;;;;4.45;1.85;;;;;;;;;;2093980;28;20497;-71
2023/08/23 00:13:47;;;;;;;5.32;1.75;;;;;;;;;;2095437;28;20020;-69
2023/08/23 00:15:07;;;;;;;3.20;1.90;;;;;;;;;;2093525;28;20025;-69
2023/08/23 00:16:25;;;;;;;3.15;1.95;;;;;;;;;;2092483;28;20037;-69
2023/08/23 00:17:44;;;;;;;3.45;1.70;;;;;;;;;;2087680;28;20556;-69
2023/08/23 00:19:03;;;;;;;3.92;2.05;;;;;;;;;;2093024;28;20028;-69
2023/08/23 00:20:22;;;;;;;5.15;2.13;;;;;;;;;;2094019;28;20036;-66
2023/08/23 00:21:41;;;;;;;2.80;2.00;;;;;;;;;;2092842;28;20048;-69
2023/08/23 00:23:00;;;;;;;4.50;1.90;;;;;;;;;;2092981;28;20036;-69
2023/08/23 00:24:19;;;;;;;4.80;2.75;;;;;;;;;;2093563;28;20029;-69
2023/08/23 00:25:38;;;;;;;3.58;2.08;;;;;;;;;;2092567;28;20029;-68
2023/08/23 00:26:57;;;;;;;3.50;2.25;;;;;;;;;;2092925;28;20100;-69
2023/08/23 00:28:19;;;;;;;4.70;2.10;;;;;;;;;;2094079;28;20037;-71
2023/08/23 00:29:37;;;;;;;3.28;2.00;;;;;;;;;;2093036;28;20497;-66
2023/08/23 00:30:56;;;;;;;3.85;2.20;;;;;;;;;;2091437;28;20029;-68
2023/08/23 00:32:15;;;;;;;6.68;2.05;;;;;;;;;;2093228;28;20036;-69
2023/08/23 00:33:34;;;;;;;5.00;2.40;;;;;;;;;;2095627;28;20029;-69
2023/08/23 00:34:53;;;;;;;6.95;2.30;;;;;;;;;;2092587;28;20033;-68
2023/08/23 00:36:12;;;;;;;4.90;2.47;;;;;;;;;;2094660;28;20025;-69
2023/08/23 00:37:31;;;;;;;6.55;2.97;;;;;;;;;;2092915;28;20029;-69
2023/08/23 00:38:50;;;;;;;5.55;2.38;;;;;;;;;;2091173;28;20477;-69
2023/08/23 00:40:12;;;;;;;5.10;2.50;;;;;;;;;;2092624;28;20020;-68
2023/08/23 00:41:31;;;;;;;5.30;2.50;;;;;;;;;;2091571;28;20028;-69
2023/08/23 00:42:50;;;;;;;4.68;2.63;;;;;;;;;;2093171;28;20021;-68
2023/08/23 00:44:09;;;;;;;9.82;2.75;;;;;;;;;;2093183;28;20052;-69
2023/08/23 00:45:30;;;;;;;7.78;2.85;;;;;;;;;;2092402;28;20021;-68
2023/08/23 00:46:49;;;;;;;6.72;2.92;;;;;;;;;;2094690;28;20032;-68
2023/08/23 00:48:09;;;;;;;4.63;2.33;;;;;;;;;;2094352;28;20032;-65
2023/08/23 00:49:33;;;;;;;6.40;2.63;;;;;;;;;;2092513;28;20060;-69
2023/08/23 00:50:53;;;;;;;3.92;2.35;;;;;;;;;;2095075;28;20032;-68
2023/08/23 00:52:12;;;;;;;4.10;2.60;;;;;;;;;;2095622;28;20056;-69
2023/08/23 00:53:31;;;;;;;4.75;2.25;;;;;;;;;;2094161;28;20488;-65
2023/08/23 00:54:50;;;;;;;5.82;2.60;;;;;;;;;;2095261;28;20040;-68
2023/08/23 00:56:09;;;;;;;5.93;2.60;;;;;;;;;;2094641;28;20065;-69
2023/08/23 00:57:28;;;;;;;6.18;2.58;;;;;;;;;;2094746;28;20036;-70
2023/08/23 00:58:47;;;;;;;6.00;2.80;;;;;;;;;;2093324;28;20557;-70
2023/08/23 01:00:07;;;;;;;2.70;2.50;;;;;;;;;;2094715;28;20040;-69
2023/08/23 01:01:26;;;;;;;5.25;2.47;;;;;;;;;;2084826;28;20069;-69
2023/08/23 01:02:45;;;;;;;7.40;2.78;;;;;;;;;;2090903;28;20029;-72
2023/08/23 01:04:04;;;;;;;5.53;2.63;;;;;;;;;;2096287;28;20036;-69
2023/08/23 01:05:49;;;;;;;10.07;2.42;;;;;;;;;;2091528;28;20029;-67
2023/08/23 01:07:12;;;;;;;5.90;2.70;;;;;;;;;;2094569;28;20028;-70
2023/08/23 01:08:37;;;;;;;3.78;2.80;;;;;;;;;;2093083;28;20024;-69
2023/08/23 01:10:03;;;;;;;7.82;2.80;;;;;;;;;;2090844;28;20054;-65
2023/08/23 01:11:42;;;;;;;6.88;2.40;;;;;;;;;;2094351;28;20108;-69
2023/08/23 01:13:18;;;;;;;7.20;2.50;;;;;;;;;;2094549;28;20385;-69
2023/08/23 01:14:45;;;;;;;9.43;3.15;;;;;;;;;;2092954;28;20417;-70
2023/08/23 01:16:05;;;;;;;4.22;2.75;;;;;;;;;;2095792;28;20037;-68
2023/08/23 01:17:24;;;;;;;7.57;3.38;;;;;;;;;;2092993;28;20029;-71
2023/08/23 01:18:44;;;;;;;6.85;3.00;;;;;;;;;;2093534;28;20104;-69
2023/08/23 01:20:03;;;;;;;8.23;2.95;;;;;;;;;;2085434;28;20021;-70
2023/08/23 01:21:31;;;;;;;7.15;3.00;;;;;;;;;;2090011;28;20385;-70
2023/08/23 01:22:57;;;;;;;7.28;2.95;;;;;;;;;;2092462;28;20033;-69
2023/08/23 01:24:16;;;;;;;8.35;2.75;;;;;;;;;;2094621;28;20473;-69
2023/08/23 01:25:35;;;;;;;5.45;2.90;;;;;;;;;;2093145;28;20108;-69
2023/08/23 01:26:54;;;;;;;7.43;3.30;;;;;;;;;;2094190;28;20025;-69
2023/08/23 01:28:13;;;;;;;4.55;2.45;;;;;;;;;;2093514;28;20036;-70
2023/08/23 01:29:32;;;;;;;4.68;2.63;;;;;;;;;;2094194;28;20063;-69
2023/08/23 01:30:51;;;;;;;9.38;3.10;;;;;;;;;;2094775;28;20034;-69
2023/08/23 01:32:24;;;;;;;10.07;3.28;;;;;;;;;;2093373;28;20036;-69
2023/08/23 01:33:53;;;;;;;8.98;3.30;;;;;;;;;;2093596;28;20080;-69
2023/08/23 01:35:16;;;;;;;9.98;3.03;;;;;;;;;;2094563;28;20029;-66
2023/08/23 01:36:37;;;;;;;13.50;3.45;;;;;;;;;;2093524;28;20505;-69
2023/08/23 01:37:57;;;;;;;8.57;3.60;;;;;;;;;;2093979;28;20032;-67
2023/08/23 01:39:16;;;;;;;8.80;3.03;;;;;;;;;;2093985;28;20024;-69
2023/08/23 01:40:35;;;;;;;6.80;3.10;;;;;;;;;;2094490;28;20029;-69
2023/08/23 01:41:54;;;;;;;6.60;3.22;;;;;;;;;;2093405;28;20474;-65
2023/08/23 01:43:14;;;;;;;9.73;3.33;;;;;;;;;;2093962;28;20033;-68
2023/08/23 01:44:32;;;;;;;7.63;3.38;;;;;;;;;;2094855;28;20021;-68
2023/08/23 01:45:52;;;;;;;4.85;3.13;;;;;;;;;;2094374;28;20482;-68
2023/08/23 01:47:11;;;;;;;6.35;3.85;;;;;;;;;;2094758;28;20036;-68
2023/08/23 01:48:30;;;;;;;7.57;3.47;;;;;;;;;;2093812;28;20381;-68
2023/08/23 01:49:49;;;;;;;6.05;3.85;;;;;;;;;;2093887;28;20033;-68
2023/08/23 01:51:08;;;;;;;7.90;3.22;;;;;;;;;;2085435;28;20041;-70
2023/08/23 01:52:27;;;;;;;5.53;3.88;;;;;;;;;;2086524;28;20111;-69
2023/08/23 01:53:45;;;;;;;5.05;3.53;;;;;;;;;;2094096;28;20107;-69
2023/08/23 01:55:04;;;;;;;7.30;3.72;;;;;;;;;;2093252;28;20412;-69
2023/08/23 01:56:23;;;;;;;9.18;3.50;;;;;;;;;;2094383;28;20071;-64
2023/08/23 01:57:42;;;;;;;8.68;3.72;;;;;;;;;;2093112;28;20062;-67
2023/08/23 01:59:02;;;;;;;12.40;3.65;;;;;;;;;;2091585;28;20069;-68
2023/08/23 02:00:20;;;;;;;6.95;3.65;;;;;;;;;;2086964;28;20080;-70
2023/08/23 02:01:39;;;;;;;5.65;3.30;;;;;;;;;;2088839;28;20037;-68
2023/08/23 02:02:58;;;;;;;8.82;3.80;;;;;;;;;;2093935;28;20040;-68
2023/08/23 02:04:19;;;;;;;6.75;3.50;;;;;;;;;;2093980;28;20036;-66
2023/08/23 02:05:38;;;;;;;7.32;3.92;;;;;;;;;;2095245;28;20029;-72
2023/08/23 02:06:57;;;;;;;7.90;3.63;;;;;;;;;;2094061;28;20478;-69
2023/08/23 02:08:17;;;;;;;8.13;4.00;;;;;;;;;;2094445;28;20029;-64
2023/08/23 02:09:35;;;;;;;7.55;3.55;;;;;;;;;;2094703;28;20036;-69
2023/08/23 02:10:54;;;;;;;8.10;3.78;;;;;;;;;;2092385;28;20025;-69
2023/08/23 02:12:13;;;;;;;4.78;3.60;;;;;;;;;;2094438;28;20035;-69
2023/08/23 02:13:32;;;;;;;9.23;3.90;;;;;;;;;;2091845;28;20032;-68
2023/08/23 02:14:51;;;;;;;5.78;4.15;;;;;;;;;;2095422;28;20386;-69
2023/08/23 02:16:10;;;;;;;8.88;4.47;;;;;;;;;;2094656;28;20036;-69
2023/08/23 02:17:30;;;;;;;9.10;3.83;;;;;;;;;;2093193;28;20032;-69
2023/08/23 02:18:48;;;;;;;7.20;3.38;;;;;;;;;;2093301;28;20028;-68
2023/08/23 02:20:07;;;;;;;9.30;3.88;;;;;;;;;;2092821;28;20032;-69
2023/08/23 02:21:26;;;;;;;10.77;4.18;;;;;;;;;;2085417;28;20025;-69
2023/08/23 02:22:45;;;;;;;8.43;3.58;;;;;;;;;;2090379;28;20021;-66
2023/08/23 02:24:05;;;;;;;8.98;4.07;;;;;;;;;;2094622;28;20025;-68
2023/08/23 02:25:23;;;;;;;8.20;3.65;;;;;;;;;;2093823;28;20025;-69
2023/08/23 02:26:42;;;;;;;6.03;3.85;;;;;;;;;;2093520;28;20029;-70
2023/08/23 02:28:01;;;;;;;6.68;4.22;;;;;;;;;;2093922;28;20446;-69
2023/08/23 02:29:20;;;;;;;11.38;4.15;;;;;;;;;;2092312;28;20067;-69
2023/08/23 02:30:39;;;;;;;7.65;4.07;;;;;;;;;;2094215;28;20032;-69
2023/08/23 02:31:58;;;;;;;11.70;4.05;;;;;;;;;;2092720;28;20037;-69
2023/08/23 02:33:18;;;;;;;8.45;4.35;;;;;;;;;;2093337;28;20033;-70
2023/08/23 02:34:37;;;;;;;8.25;4.07;;;;;;;;;;2092832;28;20021;-65
2023/08/23 02:35:56;;;;;;;8.40;3.70;;;;;;;;;;2094762;28;20497;-69
2023/08/23 02:37:15;;;;;;;4.60;3.80;;;;;;;;;;2091473;28;20044;-70
2023/08/23 02:38:34;;;;;;;6.97;4.10;;;;;;;;;;2093043;28;20060;-71
2023/08/23 02:39:53;;;;;;;7.60;4.38;;;;;;;;;;2094217;28;20036;-69
2023/08/23 02:41:12;;;;;;;6.85;4.18;;;;;;;;;;2092335;28;20020;-69
2023/08/23 02:42:31;;;;;;;6.88;4.18;;;;;;;;;;2093701;28;20859;-65
2023/08/23 02:43:50;;;;;;;12.05;4.05;;;;;;;;;;2093020;28;20029;-69
2023/08/23 02:45:09;;;;;;;9.02;4.00;;;;;;;;;;2092763;28;20029;-69
2023/08/23 02:46:28;;;;;;;8.70;4.15;;;;;;;;;;2093780;28;20033;-69
2023/08/23 02:47:47;;;;;;;10.23;4.10;;;;;;;;;;2092775;28;20025;-69
2023/08/23 02:49:06;;;;;;;5.93;3.75;;;;;;;;;;2093991;28;20055;-69
2023/08/23 02:50:25;;;;;;;7.72;4.32;;;;;;;;;;2092933;28;20401;-69
2023/08/23 02:51:44;;;;;;;11.32;4.00;;;;;;;;;;2091003;28;20033;-64
2023/08/23 02:53:03;;;;;;;7.15;3.88;;;;;;;;;;2092776;28;20028;-70
2023/08/23 02:54:22;;;;;;;11.23;4.47;;;;;;;;;;2092580;28;20037;-68
2023/08/23 02:55:41;;;;;;;13.30;5.05;;;;;;;;;;2092294;28;20107;-70
2023/08/23 02:57:00;;;;;;;9.15;4.18;;;;;;;;;;2091840;28;20043;-69
2023/08/23 02:58:19;;;;;;;12.25;4.10;;;;;;;;;;2085582;28;20029;-70
2023/08/23 02:59:38;;;;;;;6.85;4.05;;;;;;;;;;2089331;28;20045;-70
2023/08/23 03:00:57;;;;;;;8.90;4.40;;;;;;;;;;2092080;28;20106;-70
2023/08/23 03:02:16;;;;;;;6.53;4.03;;;;;;;;;;2092874;28;20032;-70
2023/08/23 03:03:35;;;;;;;7.38;4.53;;;;;;;;;;2082972;28;20025;-69
2023/08/23 03:04:54;;;;;;;9.82;4.40;;;;;;;;;;2090439;28;20021;-70
2023/08/23 03:06:13;;;;;;;10.85;4.50;;;;;;;;;;2084572;28;20024;-70
2023/08/23 03:07:31;;;;;;;7.47;4.32;;;;;;;;;;2089394;28;20071;-70
2023/08/23 03:08:50;;;;;;;6.72;4.22;;;;;;;;;;2092329;28;20025;-69
2023/08/23 03:10:09;;;;;;;10.00;4.47;;;;;;;;;;2095041;28;20030;-70
2023/08/23 03:11:28;;;;;;;12.85;4.70;;;;;;;;;;2093061;28;20496;-70
2023/08/23 03:12:47;;;;;;;8.65;4.20;;;;;;;;;;2093847;28;20029;-70
2023/08/23 03:14:06;;;;;;;10.38;4.60;;;;;;;;;;2091434;28;20032;-65
2023/08/23 03:15:25;;;;;;;11.85;4.45;;;;;;;;;;2091696;28;20089;-69
2023/08/23 03:16:44;;;;;;;7.72;4.93;;;;;;;;;;2091390;28;20030;-69
2023/08/23 03:18:03;;;;;;;12.20;4.53;;;;;;;;;;2091429;28;20025;-66
2023/08/23 03:19:22;;;;;;;7.78;4.57;;;;;;;;;;2093512;28;20036;-69
2023/08/23 03:20:43;;;;;;;10.32;4.68;;;;;;;;;;2092851;28;20029;-70
2023/08/23 03:22:02;;;;;;;17.30;4.97;;;;;;;;;;2093747;28;20024;-65
2023/08/23 03:23:21;;;;;;;9.73;4.65;;;;;;;;;;2092452;28;20381;-66
2023/08/23 03:24:40;;;;;;;6.90;4.63;;;;;;;;;;2094566;28;20028;-66
2023/08/23 03:25:59;;;;;;;9.20;5.25;;;;;;;;;;2094784;28;20017;-65
2023/08/23 03:27:18;;;;;;;7.95;4.90;;;;;;;;;;2091472;28;20040;-69
2023/08/23 03:28:37;;;;;;;6.43;4.78;;;;;;;;;;2089310;28;20457;-70
2023/08/23 03:29:56;;;;;;;7.85;4.38;;;;;;;;;;2084938;28;20505;-70
2023/08/23 03:31:15;;;;;;;10.85;5.05;;;;;;;;;;2090675;28;20040;-69
2023/08/23 03:32:34;;;;;;;10.88;4.88;;;;;;;;;;2091952;28;20024;-69
2023/08/23 03:33:53;;;;;;;14.07;4.57;;;;;;;;;;2088562;28;20042;-67
2023/08/23 03:35:12;;;;;;;9.32;5.10;;;;;;;;;;2092447;28;20054;-70
2023/08/23 03:36:31;;;;;;;10.85;4.80;;;;;;;;;;2093551;28;20389;-70
2023/08/23 03:37:50;;;;;;;12.38;4.57;;;;;;;;;;2092109;28;20029;-70
2023/08/23 03:39:09;;;;;;;13.77;5.13;;;;;;;;;;2092757;28;20024;-70
2023/08/23 03:40:28;;;;;;;12.60;5.22;;;;;;;;;;2092620;28;20033;-69
2023/08/23 03:41:47;;;;;;;8.80;5.15;;;;;;;;;;2093437;28;20021;-68
2023/08/23 03:43:06;;;;;;;7.60;4.93;;;;;;;;;;2092387;28;20385;-68
2023/08/23 03:44:25;;;;;;;9.02;4.95;;;;;;;;;;2092387;28;20014;-69
2023/08/23 03:45:50;;;;;;;6.18;4.60;;;;;;;;;;2091420;28;20021;-70
2023/08/23 03:47:09;;;;;;;10.75;5.22;;;;;;;;;;2081939;28;20025;-67
2023/08/23 03:48:28;;;;;;;12.68;5.20;;;;;;;;;;2089923;28;20032;-68
2023/08/23 03:49:48;;;;;;;8.70;4.47;;;;;;;;;;2091894;28;20024;-68
2023/08/23 03:51:07;;;;;;;16.77;4.88;;;;;;;;;;2091480;28;20540;-66
2023/08/23 03:52:26;;;;;;;9.70;5.15;;;;;;;;;;2092685;28;20102;-69
2023/08/23 03:53:45;;;;;;;12.48;5.25;;;;;;;;;;2091841;28;20389;-69
2023/08/23 03:55:04;;;;;;;8.15;5.20;;;;;;;;;;2092824;28;20033;-67
2023/08/23 03:56:23;;;;;;;7.45;4.90;;;;;;;;;;2093039;28;20481;-66
2023/08/23 03:57:42;;;;;;;7.72;4.82;;;;;;;;;;2091745;28;20036;-68
2023/08/23 03:59:01;;;;;;;16.23;6.78;;;;;;;;;;2091345;28;20040;-68
2023/08/23 04:00:20;;;;;;;10.80;5.10;;;;;;;;;;2093225;28;20044;-70
2023/08/23 04:01:39;;;;;;;10.07;5.55;;;;;;;;;;2082939;28;20025;-70
2023/08/23 04:02:58;;;;;;;8.63;5.05;;;;;;;;;;2079640;28;20113;-70
2023/08/23 04:04:16;;;;;;;9.32;4.75;;;;;;;;;;2088014;28;20052;-69
2023/08/23 04:05:39;;;;;;;9.43;5.22;;;;;;;;;;2093516;28;20029;-69
2023/08/23 04:06:57;;;;;;;8.20;5.10;;;;;;;;;;2091776;28;20036;-70
2023/08/23 04:08:17;;;;;;;17.80;5.60;;;;;;;;;;2090693;28;20429;-66
2023/08/23 04:09:36;;;;;;;8.25;4.85;;;;;;;;;;2092154;28;20018;-70
2023/08/23 04:10:54;;;;;;;11.50;5.40;;;;;;;;;;2093722;28;20111;-69
2023/08/23 04:12:14;;;;;;;11.27;5.15;;;;;;;;;;2092335;28;20033;-69
2023/08/23 04:13:33;;;;;;;8.88;5.05;;;;;;;;;;2090138;28;20037;-70
2023/08/23 04:14:52;;;;;;;14.32;5.22;;;;;;;;;;2091561;28;20139;-69
2023/08/23 04:16:11;;;;;;;11.27;5.50;;;;;;;;;;2089988;28;20119;-68
2023/08/23 04:17:30;;;;;;;12.68;4.82;;;;;;;;;;2093078;28;20391;-69
2023/08/23 04:18:49;;;;;;;10.35;5.18;;;;;;;;;;2089780;28;20048;-70
2023/08/23 04:20:08;;;;;;;9.63;5.22;;;;;;;;;;2090845;28;21586;-70
2023/08/23 04:21:28;;;;;;;9.95;5.32;;;;;;;;;;2092990;28;20063;-70
2023/08/23 04:22:47;;;;;;;8.40;5.70;;;;;;;;;;2093143;28;20036;-70
2023/08/23 04:24:05;;;;;;;8.00;5.00;;;;;;;;;;2086168;28;20037;-69
2023/08/23 04:25:25;;;;;;;9.93;5.22;;;;;;;;;;2088616;28;20033;-67
2023/08/23 04:26:44;;;;;;;10.38;5.38;;;;;;;;;;2092559;28;20017;-70
2023/08/23 04:28:03;;;;;;;9.23;5.60;;;;;;;;;;2091407;28;20021;-67
2023/08/23 04:29:22;;;;;;;14.65;5.60;;;;;;;;;;2093515;28;20032;-65
2023/08/23 04:30:42;;;;;;;7.78;5.15;;;;;;;;;;2091782;28;20035;-64
2023/08/23 04:32:02;;;;;;;11.27;5.80;;;;;;;;;;2092020;28;20373;-66
2023/08/23 04:33:21;;;;;;;12.45;5.50;;;;;;;;;;2086900;28;20487;-70
2023/08/23 04:34:41;;;;;;;13.65;5.90;;;;;;;;;;2093345;28;20033;-69
2023/08/23 04:35:59;;;;;;;10.38;5.78;;;;;;;;;;2095239;28;20062;-68
2023/08/23 04:37:18;;;;;;;8.88;5.53;;;;;;;;;;2093669;28;20444;-70
2023/08/23 04:38:37;;;;;;;13.73;5.88;;;;;;;;;;2089386;28;20028;-67
2023/08/23 04:39:56;;;;;;;11.80;5.70;;;;;;;;;;2090353;28;20025;-70
2023/08/23 04:41:15;;;;;;;11.60;5.95;;;;;;;;;;2087830;28;20042;-69
2023/08/23 04:42:36;;;;;;;10.10;5.85;;;;;;;;;;2092280;28;20056;-69
2023/08/23 04:43:55;;;;;;;9.90;5.57;;;;;;;;;;2094883;28;20021;-70
2023/08/23 04:45:14;;;;;;;13.25;6.10;;;;;;;;;;2093419;28;20041;-66
2023/08/23 04:46:33;;;;;;;9.35;6.20;;;;;;;;;;2088334;28;20021;-68
2023/08/23 04:47:52;;;;;;;10.77;5.82;;;;;;;;;;2091065;28;20103;-66
2023/08/23 04:49:11;;;;;;;14.23;5.82;;;;;;;;;;2091036;28;20135;-70
2023/08/23 04:50:30;;;;;;;13.77;6.63;;;;;;;;;;2093414;28;20033;-68
2023/08/23 04:51:49;;;;;;;16.75;5.90;;;;;;;;;;2091094;28;20036;-70
2023/08/23 04:53:09;;;;;;;14.68;6.15;;;;;;;;;;2092153;28;20519;-69
2023/08/23 04:54:28;;;;;;;9.00;5.95;;;;;;;;;;2093915;28;20040;-70
2023/08/23 04:55:48;;;;;;;11.55;6.50;;;;;;;;;;2090411;28;20489;-70
2023/08/23 04:57:06;;;;;;;9.13;5.53;;;;;;;;;;2093200;28;20041;-73
2023/08/23 04:58:32;;;;;;;12.95;6.07;;;;;;;;;;2093664;28;20040;-71
2023/08/23 04:59:51;;;;;;;10.57;6.28;;;;;;;;;;2090536;28;20045;-73
2023/08/23 05:01:10;;;;;;;10.30;5.90;;;;;;;;;;2092812;28;20041;-73
2023/08/23 05:02:29;;;;;;;10.65;6.00;;;;;;;;;;2092681;28;20485;-74
2023/08/23 05:03:48;;;;;;;10.05;5.65;;;;;;;;;;2093029;28;20504;-70
2023/08/23 05:05:07;;;;;;;12.68;5.70;;;;;;;;;;2094970;28;20048;-76
2023/08/23 05:06:26;;;;;;;12.40;5.63;;;;;;;;;;2095663;28;20029;-73
2023/08/23 05:07:45;;;;;;;14.38;5.60;;;;;;;;;;2095037;28;20475;-75
2023/08/23 05:09:04;;;;;;;19.00;6.10;;;;;;;;;;2084706;28;20037;-73
2023/08/23 05:10:23;;;;;;;11.68;5.28;;;;;;;;;;2090853;28;20037;-73
2023/08/23 05:11:43;;;;;;;9.00;5.28;;;;;;;;;;2089340;28;20497;-70
2023/08/23 05:13:03;;;;;;;15.40;5.70;;;;;;;;;;2093647;28;20032;-73
2023/08/23 05:14:22;;;;;;;11.20;5.53;;;;;;;;;;2090636;28;20040;-73
2023/08/23 05:15:41;;;;;;;12.80;5.18;;;;;;;;;;2091281;28;20115;-73
2023/08/23 05:17:00;;;;;;;10.27;5.10;;;;;;;;;;2091077;28;20036;-73
2023/08/23 05:18:19;;;;;;;13.20;5.10;;;;;;;;;;2089630;28;20466;-68
2023/08/23 05:19:38;;;;;;;7.53;4.68;;;;;;;;;;2091901;28;20033;-73
2023/08/23 05:20:59;;;;;;;10.98;4.90;;;;;;;;;;2090924;28;20029;-74
2023/08/23 05:22:18;;;;;;;6.38;4.90;;;;;;;;;;2090942;28;20037;-73
2023/08/23 05:23:37;;;;;;;14.27;4.65;;;;;;;;;;2091482;28;20444;-72
2023/08/23 05:24:56;;;;;;;10.05;4.43;;;;;;;;;;2089982;28;20122;-67
2023/08/23 05:26:15;;;;;;;11.32;4.65;;;;;;;;;;2092824;28;20045;-73
2023/08/23 05:27:34;;;;;;;9.77;4.30;;;;;;;;;;2089760;28;20682;-73
2023/08/23 05:28:53;;;;;;;6.45;4.18;;;;;;;;;;2090871;28;20029;-70
2023/08/23 05:30:12;;;;;;;7.97;3.97;;;;;;;;;;2088529;28;20028;-72
2023/08/23 05:31:30;;;;;;;9.35;3.63;;;;;;;;;;2087353;28;20037;-70
2023/08/23 05:32:49;;;;;;;11.55;5.00;;;;;;;;;;2088227;28;20424;-69
2023/08/23 05:34:08;;;;;;;8.52;4.45;;;;;;;;;;2092650;28;20032;-72
2023/08/23 05:35:27;;;;;;;8.18;4.10;;;;;;;;;;2091008;28;20163;-75
2023/08/23 05:36:46;;;;;;;7.20;3.95;;;;;;;;;;2090476;28;20028;-73
2023/08/23 05:38:05;;;;;;;7.78;4.22;;;;;;;;;;2088527;28;20028;-73
2023/08/23 05:39:24;;;;;;;7.20;3.50;;;;;;;;;;2094825;28;20068;-71
2023/08/23 05:40:45;;;;;;;5.30;3.42;;;;;;;;;;2089194;28;20032;-73
2023/08/23 05:42:04;;;;;;;9.43;3.47;;;;;;;;;;2088204;28;20044;-71
2023/08/23 05:43:24;;;;;;;10.98;3.78;;;;;;;;;;2091787;28;20029;-72
2023/08/23 05:44:42;;;;;;;6.75;3.50;;;;;;;;;;2083397;28;20425;-73
2023/08/23 05:46:03;;;;;;;8.50;4.38;;;;;;;;;;2083865;28;20028;-73
2023/08/23 05:47:21;;;;;;;8.48;3.67;;;;;;;;;;2089550;28;20021;-68
2023/08/23 05:48:40;;;;;;;7.75;3.55;;;;;;;;;;2090673;28;20485;-70
2023/08/23 05:49:59;;;;;;;6.97;3.70;;;;;;;;;;2081271;28;20037;-65
2023/08/23 05:51:18;;;;;;;6.65;3.72;;;;;;;;;;2089315;28;20448;-69
2023/08/23 05:52:37;;;;;;;4.88;3.47;;;;;;;;;;2089893;28;20372;-65
2023/08/23 05:53:56;;;;;;;7.05;3.22;;;;;;;;;;2088244;28;20025;-66
2023/08/23 05:55:15;;;;;;;7.00;3.28;;;;;;;;;;2092216;28;20493;-69
2023/08/23 05:56:34;;;;;;;5.20;3.00;;;;;;;;;;2090917;28;20211;-73
2023/08/23 05:57:53;;;;;;;5.13;3.25;;;;;;;;;;2080370;28;20040;-71
2023/08/23 05:59:12;;;;;;;6.80;3.80;;;;;;;;;;2088380;28;20108;-71
2023/08/23 06:00:31;;;;;;;6.00;3.10;;;;;;;;;;2084564;28;20393;-72
2023/08/23 06:01:50;;;;;;;6.35;3.08;;;;;;;;;;2087642;28;20037;-73
2023/08/23 06:03:09;;;;;;;6.85;3.63;;;;;;;;;;2092904;28;20028;-73
2023/08/23 06:04:28;;;;;;;11.45;3.17;;;;;;;;;;2094460;28;20029;-69
2023/08/23 06:05:51;;;;;;;11.00;3.22;;;;;;;;;;2093339;28;20389;-73
2023/08/23 06:07:10;;;;;;;6.75;3.33;;;;;;;;;;2094745;28;20100;-74
2023/08/23 06:08:29;;;;;;;7.97;3.25;;;;;;;;;;2091781;28;20119;-72
2023/08/23 06:09:48;;;;;;;7.75;3.13;;;;;;;;;;2095410;28;20029;-75
2023/08/23 06:11:07;;;;;;;6.45;3.22;;;;;;;;;;2083089;28;20605;-73
2023/08/23 06:12:27;;;;;;;7.47;3.28;;;;;;;;;;2090023;28;20032;-70
2023/08/23 06:13:46;;;;;;;8.13;3.10;;;;;;;;;;2094690;28;20029;-69
2023/08/23 06:15:05;;;;;;;9.63;2.90;;;;;;;;;;2092320;28;20431;-73
2023/08/23 06:16:24;;;;;;;3.72;2.80;;;;;;;;;;2092595;28;20033;-73
2023/08/23 06:17:44;;;;;;;4.93;3.13;;;;;;;;;;2093296;28;20037;-73
2023/08/23 06:19:03;;;;;;;6.25;3.10;;;;;;;;;;2091551;28;20036;-69
2023/08/23 06:20:22;;;;;;;13.00;3.47;;;;;;;;;;2091563;28;20068;-73
2023/08/23 06:21:44;;;;;;;6.70;2.70;;;;;;;;;;2093299;28;20068;-73
2023/08/23 06:23:03;;;;;;;3.80;3.20;;;;;;;;;;2090309;28;20037;-72
2023/08/23 06:24:22;;;;;;;5.55;2.92;;;;;;;;;;2091174;28;20040;-73
2023/08/23 06:25:41;;;;;;;4.00;2.50;;;;;;;;;;2093555;28;20075;-70
2023/08/23 06:27:01;;;;;;;5.65;2.85;;;;;;;;;;2091970;28;20056;-73
2023/08/23 06:28:20;;;;;;;7.32;2.97;;;;;;;;;;2091647;28;20033;-73
2023/08/23 06:29:40;;;;;;;5.20;3.35;;;;;;;;;;2094000;28;20029;-73
2023/08/23 06:30:59;;;;;;;3.97;2.90;;;;;;;;;;2092758;28;20100;-73
2023/08/23 06:32:19;;;;;;;5.43;2.60;;;;;;;;;;2094325;28;20424;-73
2023/08/23 06:33:38;;;;;;;4.50;2.60;;;;;;;;;;2093819;28;20040;-73
2023/08/23 06:34:57;;;;;;;7.70;2.70;;;;;;;;;;2090858;28;20028;-71
2023/08/23 06:36:16;;;;;;;6.57;2.80;;;;;;;;;;2093292;28;20028;-63
2023/08/23 06:37:35;;;;;;;4.43;2.70;;;;;;;;;;2092746;28;20025;-73
2023/08/23 06:38:54;;;;;;;5.97;3.15;;;;;;;;;;2090786;28;20028;-74
2023/08/23 06:40:13;;;;;;;6.60;2.95;;;;;;;;;;2092132;28;20025;-72
2023/08/23 06:41:32;;;;;;;9.25;3.63;;;;;;;;;;2091878;28;20136;-73
2023/08/23 06:42:51;;;;;;;4.22;2.80;;;;;;;;;;2083016;28;20029;-73
2023/08/23 06:44:10;;;;;;;7.32;2.88;;;;;;;;;;2090557;28;20025;-72
2023/08/23 06:45:29;;;;;;;7.85;3.28;;;;;;;;;;2092477;28;20033;-73
2023/08/23 06:46:48;;;;;;;6.30;3.13;;;;;;;;;;2092532;28;20021;-73
2023/08/23 06:48:07;;;;;;;5.82;2.95;;;;;;;;;;2092397;28;20100;-70
2023/08/23 06:49:26;;;;;;;4.82;2.88;;;;;;;;;;2090753;28;20025;-73
2023/08/23 06:50:45;;;;;;;9.32;3.42;;;;;;;;;;2093023;28;20032;-73
2023/08/23 06:52:04;;;;;;;7.60;2.90;;;;;;;;;;2088759;28;20595;-71
2023/08/23 06:53:23;;;;;;;4.50;2.75;;;;;;;;;;2089911;28;20033;-68
2023/08/23 06:54:42;;;;;;;6.05;3.22;;;;;;;;;;2084976;28;20036;-73
2023/08/23 06:56:01;;;;;;;8.10;3.30;;;;;;;;;;2088772;28;20396;-70
2023/08/23 06:57:28;;;;;;;7.55;4.03;;;;;;;;;;2092575;28;20040;-74
2023/08/23 06:58:47;;;;;;;4.35;3.05;;;;;;;;;;2090863;28;20025;-73
2023/08/23 07:00:07;;;;;;;6.82;2.95;;;;;;;;;;2092642;28;20048;-73
2023/08/23 07:01:26;;;;;;;7.10;3.38;;;;;;;;;;2091634;28;20425;-72
2023/08/23 07:02:45;;;;;;;5.20;2.70;;;;;;;;;;2084998;28;20450;-73
2023/08/23 07:04:04;;;;;;;5.53;3.25;;;;;;;;;;2089842;28;20386;-71
2023/08/23 07:05:24;;;;;;;5.82;3.08;;;;;;;;;;2093511;28;20123;-73
2023/08/23 07:06:43;;;;;;;6.40;3.47;;;;;;;;;;2092044;28;20024;-73
2023/08/23 07:08:02;;;;;;;4.88;3.20;;;;;;;;;;2091947;28;20020;-71
2023/08/23 07:09:21;;;;;;;6.55;2.63;;;;;;;;;;2089896;28;20032;-70
2023/08/23 07:10:40;;;;;;;7.03;3.08;;;;;;;;;;2092734;28;20036;-74
2023/08/23 07:11:59;;;;;;;5.47;2.83;;;;;;;;;;2093566;28;20498;-74
2023/08/23 07:13:18;;;;;;;8.82;2.85;;;;;;;;;;2094571;28;20501;-73
2023/08/23 07:14:37;;;;;;;8.65;3.15;;;;;;;;;;2092084;28;20032;-75
2023/08/23 07:15:56;;;;;;;6.05;3.30;;;;;;;;;;2084913;28;20048;-71
2023/08/23 07:17:15;;;;;;;7.43;3.50;;;;;;;;;;2081959;28;20080;-72
2023/08/23 07:18:34;;;;;;;12.57;3.55;;;;;;;;;;2087943;28;20436;-74
2023/08/23 07:19:55;;;;;;;6.15;2.85;;;;;;;;;;2094625;28;20029;-75
2023/08/23 07:21:15;;;;;;;6.07;3.60;;;;;;;;;;2091949;28;20100;-72
2023/08/23 07:22:34;;;;;;;6.55;3.08;;;;;;;;;;2092212;28;20028;-73
2023/08/23 07:23:53;;;;;;;6.80;3.05;;;;;;;;;;2091073;28;20020;-67
2023/08/23 07:25:12;;;;;;;7.00;3.17;;;;;;;;;;2090708;28;20032;-71
2023/08/23 07:26:33;;;;;;;4.28;2.70;;;;;;;;;;2092007;28;20402;-67
2023/08/23 07:27:52;;;;;;;7.55;2.80;;;;;;;;;;2091014;28;20036;-72
2023/08/23 07:29:15;;;;;;;7.97;2.92;;;;;;;;;;2092636;28;20020;-71
2023/08/23 07:30:34;;;;;;;5.93;2.95;;;;;;;;;;2091189;28;20619;-73
2023/08/23 07:31:53;;;;;;;4.03;2.53;;;;;;;;;;2088777;28;20076;-70
2023/08/23 07:33:12;;;;;;;4.30;3.15;;;;;;;;;;2092844;28;20033;-68
2023/08/23 07:34:32;;;;;;;6.10;3.20;;;;;;;;;;2092676;28;20024;-77
2023/08/23 07:35:57;;;;;;;4.07;2.80;;;;;;;;;;2092973;28;20104;-72
2023/08/23 07:37:17;;;;;;;6.90;2.92;;;;;;;;;;2093834;28;20045;-73
2023/08/23 07:38:36;;;;;;;4.60;2.53;;;;;;;;;;2092686;28;20025;-71
2023/08/23 07:39:55;;;;;;;3.72;2.72;;;;;;;;;;2085049;28;20497;-72
2023/08/23 07:41:14;;;;;;;3.15;2.45;;;;;;;;;;2088237;28;20044;-73
2023/08/23 07:42:33;;;;;;;4.47;2.67;;;;;;;;;;2092562;28;20068;-73
2023/08/23 07:43:52;;;;;;;6.38;3.10;;;;;;;;;;2090920;28;20025;-73
2023/08/23 07:45:11;;;;;;;4.22;2.95;;;;;;;;;;2084984;28;20497;-73
2023/08/23 07:46:30;;;;;;;6.15;2.70;;;;;;;;;;2089453;28;20111;-72
2023/08/23 07:47:49;;;;;;;5.22;3.42;;;;;;;;;;2091664;28;20029;-73
2023/08/23 07:49:08;;;;;;;6.07;2.92;;;;;;;;;;2092256;28;20312;-73
2023/08/23 07:50:27;;;;;;;3.40;2.70;;;;;;;;;;2090375;28;20036;-71
2023/08/23 07:51:48;;;;;;;3.25;2.95;;;;;;;;;;2092618;28;20036;-73
2023/08/23 07:53:07;;;;;;;4.35;3.08;;;;;;;;;;2089889;28;20445;-73
2023/08/23 07:54:26;;;;;;;4.25;2.58;;;;;;;;;;2092795;28;20029;-73
2023/08/23 07:55:45;;;;;;;3.30;2.45;;;;;;;;;;2093338;28;20389;-73